Le Raizet Airport, Guadeloupe

5:50 AM AST on February 12, 2016 (GMT -0400)
Le Raizet | | Change Station
CLOSE
Current Station
Airport
Location: Le Raizet Airport,
Elevation: 26 ft
Nearby Weather Stations

Elev 26 ft 16.27 °N, 61.53 °W | Updated 20 minutes ago

Partly Cloudy
Partly Cloudy
73 °F
Feels Like 73 °F
N
4
Wind Variable Wind from SE

Today
High -- | Low -- °F
--% Chance of Precip.
Yesterday
High -- | Low -- °F
Precip. -- in
Pressure 30.04 in
Visibility 6.2 miles
Clouds Few 1900 ft
Dew Point 70 °F
Humidity 88%
Rainfall 0.00 in
Snow Depth Not available.
6:33 AM 6:07 PM
Waxing Crescent, 19% visible
METAR TFFR 120930Z AUTO 13003KT 9999 FEW019 23/21 Q1017
Pressure 30.04 in
Visibility 6.2 miles
Clouds Few 1900 ft
Dew Point 70 °F
Humidity 88%
Rainfall 0.00 in
Snow Depth Not available.
6:33 AM 6:07 PM
Waxing Crescent, 19% visible
METAR TFFR 120930Z AUTO 13003KT 9999 FEW019 23/21 Q1017

10-Day Weather Forecast

No radar image for this location.
×

Almanac

Astronomy

Feb. 12, 2016 Rise Set
Actual Time
Civil Twilight
Nautical Twilight
Astronomical Twilight
Moon
Length of Visible Light
Length of Day
Tomorrow will be .
, % of the Moon is Illuminated

Today's Extremes

Country Highs Country Lows

Community

WunderPhotos

Upload Photos

1,892,286 photos uploaded!

WunderBlog® & News

Nearby

Air Quality

  Air Quality AQ Index Pollutant
Not available.

Snow Depth

Station Depth Elevation

Earthquake Activity

City Distance Mag. Time & Date
Minimum magnitude displayed is 2.5.

Coastal Water Temperatures

Place Temperature

Stations

Nearby Weather Stations

Station Location Temp. Windchill Dew Point Humidity Wind Precip. Elev Updated Type